createdAt,value
2018-08-19T00:00:32.484Z,1012.74
2018-08-19T00:01:32.543Z,1012.74
2018-08-19T00:02:32.602Z,1012.77
2018-08-19T00:03:32.662Z,1012.73
2018-08-19T00:04:32.721Z,1012.71
2018-08-19T00:05:32.781Z,1012.72
2018-08-19T00:06:32.843Z,1012.66
2018-08-19T00:07:32.902Z,1012.68
2018-08-19T00:08:32.959Z,1012.69
2018-08-19T00:09:33.019Z,1012.70
2018-08-19T00:10:33.078Z,1012.71
2018-08-19T00:11:33.138Z,1012.69
2018-08-19T00:12:33.205Z,1012.69
2018-08-19T00:13:33.257Z,1012.70
2018-08-19T00:14:33.315Z,1012.68
2018-08-19T00:15:33.374Z,1012.68
2018-08-19T00:16:33.436Z,1012.68
2018-08-19T00:17:33.495Z,1012.66
2018-08-19T00:18:33.552Z,1012.68
2018-08-19T00:19:33.612Z,1012.66
2018-08-19T00:20:33.674Z,1012.66
2018-08-19T00:21:33.731Z,1012.67
2018-08-19T00:22:33.791Z,1012.65
2018-08-19T00:23:33.850Z,1012.68
2018-08-19T00:24:33.909Z,1012.66
2018-08-19T00:25:33.970Z,1012.69
2018-08-19T00:26:34.027Z,1012.71
2018-08-19T00:27:34.088Z,1012.69
2018-08-19T00:28:34.147Z,1012.70
2018-08-19T00:29:34.207Z,1012.69
2018-08-19T00:30:34.264Z,1012.73
2018-08-19T00:31:34.324Z,1012.73
2018-08-19T00:32:34.384Z,1012.72
2018-08-19T00:33:34.444Z,1012.69
2018-08-19T00:34:34.503Z,1012.68
2018-08-19T00:35:34.567Z,1012.75
2018-08-19T00:36:34.622Z,1012.76
2018-08-19T00:37:34.683Z,1012.72
2018-08-19T00:38:34.739Z,1012.78
2018-08-19T00:39:34.800Z,1012.79
2018-08-19T00:40:34.858Z,1012.75
2018-08-19T00:41:34.918Z,1012.75
2018-08-19T00:42:34.977Z,1012.80
2018-08-19T00:43:35.036Z,1012.80
2018-08-19T00:44:35.101Z,1012.77
2018-08-19T00:45:35.154Z,1012.77
2018-08-19T00:46:35.215Z,1012.75
2018-08-19T00:47:35.273Z,1012.77
2018-08-19T00:48:35.583Z,1012.82
2018-08-19T00:49:35.395Z,1012.84
2018-08-19T00:50:35.450Z,1012.82
2018-08-19T00:51:35.514Z,1012.79
2018-08-19T00:52:35.571Z,1012.78
2018-08-19T00:53:35.630Z,1012.79
2018-08-19T00:54:35.687Z,1012.78
2018-08-19T00:55:35.746Z,1012.75
2018-08-19T00:56:35.806Z,1012.74
2018-08-19T00:57:35.866Z,1012.74
2018-08-19T00:58:35.925Z,1012.71
2018-08-19T00:59:35.983Z,1012.73
2018-08-19T01:00:36.043Z,1012.74
2018-08-19T01:01:36.102Z,1012.72
2018-08-19T01:02:36.161Z,1012.74
2018-08-19T01:03:36.220Z,1012.78
2018-08-19T01:04:36.281Z,1012.71
2018-08-19T01:05:36.338Z,1012.79
2018-08-19T01:06:36.398Z,1012.79
2018-08-19T01:07:36.458Z,1012.73
2018-08-19T01:08:36.767Z,1012.79
2018-08-19T01:09:36.576Z,1012.78
2018-08-19T01:10:36.633Z,1012.79
2018-08-19T01:11:36.693Z,1012.77
2018-08-19T01:12:36.753Z,1012.77
2018-08-19T01:13:36.811Z,1012.80
2018-08-19T01:14:36.870Z,1012.80
2018-08-19T01:15:36.930Z,1012.83
2018-08-19T01:16:36.990Z,1012.80
2018-08-19T01:17:37.048Z,1012.78
2018-08-19T01:18:37.106Z,1012.77
2018-08-19T01:19:37.165Z,1012.79
2018-08-19T01:20:37.227Z,1012.81
2018-08-19T01:21:37.291Z,1012.78
2018-08-19T01:22:37.344Z,1012.82
2018-08-19T01:23:37.422Z,1012.84
2018-08-19T01:24:37.461Z,1012.79
2018-08-19T01:25:37.521Z,1012.86
2018-08-19T01:26:37.578Z,1012.87
2018-08-19T01:27:37.638Z,1012.87
2018-08-19T01:28:37.699Z,1012.87
2018-08-19T01:29:37.764Z,1012.89
2018-08-19T01:30:37.815Z,1012.88
2018-08-19T01:31:37.873Z,1012.87
2018-08-19T01:32:37.934Z,1012.91
2018-08-19T01:33:37.992Z,1012.89
2018-08-19T01:34:38.052Z,1012.90
2018-08-19T01:35:38.109Z,1012.93
2018-08-19T01:36:38.169Z,1012.93
2018-08-19T01:37:38.228Z,1012.91
2018-08-19T01:38:38.286Z,1012.93
2018-08-19T01:39:38.345Z,1012.94
2018-08-19T01:40:38.404Z,1012.99
2018-08-19T01:41:38.466Z,1012.96
2018-08-19T01:42:38.522Z,1012.99
2018-08-19T01:43:38.581Z,1013.00
2018-08-19T01:44:38.891Z,1013.00
2018-08-19T01:45:38.699Z,1013.01
2018-08-19T01:46:38.757Z,1013.00
2018-08-19T01:47:38.816Z,1013.00
2018-08-19T01:48:38.875Z,1013.02
2018-08-19T01:49:38.934Z,1012.98
2018-08-19T01:50:38.991Z,1012.97
2018-08-19T01:51:39.054Z,1012.98
2018-08-19T01:52:39.111Z,1012.93
2018-08-19T01:53:39.170Z,1012.96
2018-08-19T01:54:39.228Z,1012.92
2018-08-19T01:55:39.288Z,1013.02
2018-08-19T01:56:39.346Z,1012.99
2018-08-19T01:57:39.407Z,1013.02
2018-08-19T01:58:39.467Z,1013.06
2018-08-19T01:59:39.525Z,1012.99
2018-08-19T02:00:39.582Z,1013.02
2018-08-19T02:01:39.640Z,1013.02
2018-08-19T02:02:39.698Z,1013.04
2018-08-19T02:03:39.757Z,1013.04
2018-08-19T02:04:39.816Z,1013.04
2018-08-19T02:05:39.875Z,1013.03
2018-08-19T02:06:39.933Z,1013.01
2018-08-19T02:07:39.992Z,1012.99
2018-08-19T02:08:40.050Z,1012.93
2018-08-19T02:09:40.110Z,1012.96
2018-08-19T02:10:40.168Z,1013.03
2018-08-19T02:11:40.227Z,1012.98
2018-08-19T02:12:40.286Z,1012.96
2018-08-19T02:13:40.349Z,1012.97
2018-08-19T02:14:40.406Z,1012.97
2018-08-19T02:15:40.462Z,1012.99
2018-08-19T02:16:40.520Z,1013.00
2018-08-19T02:17:40.580Z,1012.96
2018-08-19T02:18:40.637Z,1012.94
2018-08-19T02:19:40.696Z,1012.97
2018-08-19T02:20:40.807Z,1012.97
2018-08-19T02:21:40.821Z,1013.01
2018-08-19T02:22:40.872Z,1013.03
2018-08-19T02:23:40.931Z,1013.01
2018-08-19T02:24:41.010Z,1013.04
2018-08-19T02:25:41.048Z,1013.02
2018-08-19T02:26:41.107Z,1012.99
2018-08-19T02:27:41.166Z,1013.01
2018-08-19T02:28:41.224Z,1013.02
2018-08-19T02:29:41.285Z,1012.98
2018-08-19T02:30:41.341Z,1013.04
2018-08-19T02:31:41.417Z,1013.03
2018-08-19T02:32:41.459Z,1013.04
2018-08-19T02:33:41.517Z,1013.10
2018-08-19T02:34:41.575Z,1013.03
2018-08-19T02:35:41.635Z,1013.05
2018-08-19T02:36:41.693Z,1013.03
2018-08-19T02:37:41.751Z,1013.06
2018-08-19T02:38:41.809Z,1013.05
2018-08-19T02:39:42.118Z,1013.05
2018-08-19T02:40:41.926Z,1013.06
2018-08-19T02:41:41.985Z,1013.06
2018-08-19T02:42:42.043Z,1013.11
2018-08-19T02:43:42.103Z,1013.09
2018-08-19T02:44:42.160Z,1013.06
2018-08-19T02:45:42.218Z,1013.03
2018-08-19T02:46:42.278Z,1013.01
2018-08-19T02:47:42.337Z,1013.02
2018-08-19T02:48:42.395Z,1013.05
2018-08-19T02:49:42.453Z,1013.02
2018-08-19T02:50:42.512Z,1013.01
2018-08-19T02:51:42.569Z,1013.06
2018-08-19T02:52:42.627Z,1013.03
2018-08-19T02:53:42.688Z,1013.04
2018-08-19T02:54:42.744Z,1013.05
2018-08-19T02:55:42.803Z,1013.05
2018-08-19T02:56:42.866Z,1013.07
2018-08-19T02:57:42.920Z,1013.06
2018-08-19T02:58:42.979Z,1013.03
2018-08-19T02:59:43.038Z,1013.06
2018-08-19T03:00:43.095Z,1013.00
2018-08-19T03:01:43.153Z,1013.05
2018-08-19T03:02:43.211Z,1013.02
2018-08-19T03:03:43.270Z,1013.00
2018-08-19T03:04:43.329Z,1013.01
2018-08-19T03:05:43.388Z,1013.00
2018-08-19T03:06:43.445Z,1012.95
2018-08-19T03:07:43.502Z,1013.00
2018-08-19T03:08:43.562Z,1012.99
2018-08-19T03:09:43.620Z,1013.01
2018-08-19T03:10:43.677Z,1012.99
2018-08-19T03:11:43.736Z,1013.00
2018-08-19T03:12:43.796Z,1012.99
2018-08-19T03:13:43.853Z,1012.99
2018-08-19T03:14:43.909Z,1013.00
2018-08-19T03:15:43.969Z,1012.95
2018-08-19T03:16:44.028Z,1012.96
2018-08-19T03:17:44.089Z,1012.99
2018-08-19T03:18:44.144Z,1012.97
2018-08-19T03:19:44.203Z,1012.93
2018-08-19T03:20:44.261Z,1012.95
2018-08-19T03:21:44.320Z,1012.95
2018-08-19T03:22:44.377Z,1012.95
2018-08-19T03:23:44.438Z,1012.91
2018-08-19T03:24:44.496Z,1012.96
2018-08-19T03:25:44.552Z,1012.94
2018-08-19T03:26:44.609Z,1013.00
2018-08-19T03:27:44.671Z,1013.00
2018-08-19T03:28:44.730Z,1012.95
2018-08-19T03:29:44.786Z,1012.99
2018-08-19T03:30:44.844Z,1012.94
2018-08-19T03:31:44.903Z,1012.95
2018-08-19T03:32:44.961Z,1012.95
2018-08-19T03:33:45.020Z,1012.95
2018-08-19T03:34:45.077Z,1012.88
2018-08-19T03:35:45.137Z,1012.91
2018-08-19T03:36:45.198Z,1012.94
2018-08-19T03:37:45.254Z,1012.92
2018-08-19T03:38:45.310Z,1012.94
2018-08-19T03:39:45.369Z,1012.99
2018-08-19T03:40:45.427Z,1012.96
2018-08-19T03:41:45.487Z,1013.01
2018-08-19T03:42:45.548Z,1012.99
2018-08-19T03:43:45.601Z,1013.01
2018-08-19T03:44:45.661Z,1013.07
2018-08-19T03:45:45.724Z,1013.04
2018-08-19T03:46:45.776Z,1013.02
2018-08-19T03:47:45.834Z,1013.04
2018-08-19T03:48:45.893Z,1013.04
2018-08-19T03:49:45.951Z,1012.97
2018-08-19T03:50:46.009Z,1012.96
2018-08-19T03:51:46.096Z,1012.95
2018-08-19T03:52:46.143Z,1013.00
2018-08-19T03:53:46.184Z,1012.95
2018-08-19T03:54:46.268Z,1012.96
2018-08-19T03:55:46.304Z,1013.02
2018-08-19T03:56:46.381Z,1012.99
2018-08-19T03:57:46.417Z,1013.00
2018-08-19T03:58:46.494Z,1012.97
2018-08-19T03:59:46.542Z,1013.00
2018-08-19T04:00:46.608Z,1012.99
2018-08-19T04:01:46.650Z,1013.02
2018-08-19T04:02:46.708Z,1012.99
2018-08-19T04:03:46.767Z,1013.01
2018-08-19T04:04:46.825Z,1013.00
2018-08-19T04:05:46.885Z,1012.99
2018-08-19T04:06:46.941Z,1012.97
2018-08-19T04:07:46.998Z,1013.02
2018-08-19T04:08:47.057Z,1012.98
2018-08-19T04:09:47.167Z,1012.97
2018-08-19T04:10:47.173Z,1012.97
2018-08-19T04:11:47.232Z,1012.98
2018-08-19T04:12:47.290Z,1012.97
2018-08-19T04:13:47.348Z,1013.05
2018-08-19T04:14:47.407Z,1013.05
2018-08-19T04:15:47.464Z,1013.07
2018-08-19T04:16:47.523Z,1013.07
2018-08-19T04:17:47.581Z,1013.07
2018-08-19T04:18:47.639Z,1013.08
2018-08-19T04:19:47.696Z,1013.08
2018-08-19T04:20:47.755Z,1013.09
2018-08-19T04:21:47.814Z,1013.11
2018-08-19T04:22:47.871Z,1013.08
2018-08-19T04:23:47.945Z,1013.06
2018-08-19T04:24:47.988Z,1012.98
2018-08-19T04:25:48.046Z,1013.01
2018-08-19T04:26:48.103Z,1013.00
2018-08-19T04:27:48.161Z,1012.96
2018-08-19T04:28:48.223Z,1012.97
2018-08-19T04:29:48.279Z,1013.01
2018-08-19T04:30:48.337Z,1013.01
2018-08-19T04:31:48.397Z,1013.01
2018-08-19T04:32:48.452Z,1013.05
2018-08-19T04:33:48.511Z,1013.03
2018-08-19T04:34:48.604Z,1013.06
2018-08-19T04:35:48.627Z,1013.06
2018-08-19T04:36:48.836Z,1013.07
2018-08-19T04:37:48.744Z,1013.03
2018-08-19T04:38:48.802Z,1013.07
2018-08-19T04:39:48.859Z,1013.00
2018-08-19T04:40:48.918Z,1013.00
2018-08-19T04:41:48.976Z,1012.98
2018-08-19T04:42:49.032Z,1012.97
2018-08-19T04:43:49.091Z,1013.00
2018-08-19T04:44:49.151Z,1012.97
2018-08-19T04:45:49.208Z,1012.94
2018-08-19T04:46:49.268Z,1012.93
2018-08-19T04:47:49.324Z,1012.98
2018-08-19T04:48:49.396Z,1013.03
2018-08-19T04:49:49.442Z,1013.00
2018-08-19T04:50:49.498Z,1012.96
2018-08-19T04:51:49.556Z,1012.97
2018-08-19T04:52:49.614Z,1013.01
2018-08-19T04:53:49.673Z,1013.00
2018-08-19T04:54:49.730Z,1012.98
2018-08-19T04:55:49.789Z,1013.00
2018-08-19T04:56:49.855Z,1013.02
2018-08-19T04:57:49.910Z,1013.07
2018-08-19T04:58:49.965Z,1013.00
2018-08-19T04:59:50.021Z,1013.01
2018-08-19T05:00:50.082Z,1013.01
2018-08-19T05:01:50.138Z,1013.00
2018-08-19T05:02:50.448Z,1013.00
2018-08-19T05:03:50.255Z,1012.97
2018-08-19T05:04:50.312Z,1012.99
2018-08-19T05:05:50.371Z,1012.99
2018-08-19T05:06:50.428Z,1012.97
2018-08-19T05:07:50.539Z,1013.00
2018-08-19T05:08:50.545Z,1012.98
2018-08-19T05:09:50.605Z,1012.98
2018-08-19T05:10:50.662Z,1012.96
2018-08-19T05:11:50.742Z,1012.98
2018-08-19T05:12:50.782Z,1012.98
2018-08-19T05:13:50.837Z,1012.97
2018-08-19T05:14:50.894Z,1012.94
2018-08-19T05:15:50.953Z,1012.95
2018-08-19T05:16:51.011Z,1012.96
2018-08-19T05:17:51.069Z,1012.97
2018-08-19T05:18:51.127Z,1012.97
2018-08-19T05:19:51.185Z,1012.97
2018-08-19T05:20:51.245Z,1013.00
2018-08-19T05:21:51.313Z,1013.00
2018-08-19T05:22:51.610Z,1013.03
2018-08-19T05:23:51.418Z,1013.02
2018-08-19T05:24:51.476Z,1013.03
2018-08-19T05:25:51.537Z,1013.02
2018-08-19T05:26:51.592Z,1013.03
2018-08-19T05:27:51.653Z,1012.98
2018-08-19T05:28:51.710Z,1013.00
2018-08-19T05:29:51.768Z,1013.04
2018-08-19T05:30:51.840Z,1013.03
2018-08-19T05:31:51.885Z,1013.08
2018-08-19T05:32:51.943Z,1013.01
2018-08-19T05:33:52.001Z,1013.05
2018-08-19T05:34:52.102Z,1013.03
2018-08-19T05:35:52.117Z,1012.99
2018-08-19T05:36:52.177Z,1013.02
2018-08-19T05:37:52.245Z,1013.02
2018-08-19T05:38:52.291Z,1012.99
2018-08-19T05:39:52.351Z,1013.01
2018-08-19T05:40:52.408Z,1012.99
2018-08-19T05:41:52.467Z,1012.97
2018-08-19T05:42:52.524Z,1012.97
2018-08-19T05:43:52.587Z,1012.99
2018-08-19T05:44:52.642Z,1013.00
2018-08-19T05:45:52.702Z,1012.99
2018-08-19T05:46:52.761Z,1012.96
2018-08-19T05:47:52.817Z,1012.95
2018-08-19T05:48:52.875Z,1012.96
2018-08-19T05:49:52.933Z,1012.98
2018-08-19T05:50:52.992Z,1012.95
2018-08-19T05:51:53.050Z,1012.93
2018-08-19T05:52:53.109Z,1012.95
2018-08-19T05:53:53.202Z,1012.91
2018-08-19T05:54:53.227Z,1012.91
2018-08-19T05:55:53.285Z,1012.94
2018-08-19T05:56:53.343Z,1012.95
2018-08-19T05:57:53.401Z,1012.89
2018-08-19T05:58:53.459Z,1012.90
2018-08-19T05:59:53.517Z,1012.92
2018-08-19T06:00:53.576Z,1012.91
2018-08-19T06:01:53.635Z,1012.90
2018-08-19T06:02:53.693Z,1012.92
2018-08-19T06:03:53.753Z,1012.89
2018-08-19T06:04:53.811Z,1012.88
2018-08-19T06:05:53.873Z,1012.87
2018-08-19T06:06:53.928Z,1012.91
2018-08-19T06:07:53.987Z,1012.86
2018-08-19T06:08:54.045Z,1012.90
2018-08-19T06:09:54.103Z,1012.90
2018-08-19T06:10:54.160Z,1012.90
2018-08-19T06:11:54.220Z,1012.90
2018-08-19T06:12:54.280Z,1012.84
2018-08-19T06:13:54.339Z,1012.85
2018-08-19T06:14:54.397Z,1012.85
2018-08-19T06:15:54.514Z,1012.89
2018-08-19T06:16:54.516Z,1012.91
2018-08-19T06:17:54.576Z,1012.93
2018-08-19T06:18:54.633Z,1012.94
2018-08-19T06:19:54.695Z,1012.94
2018-08-19T06:20:54.751Z,1012.94
2018-08-19T06:21:54.859Z,1012.95
2018-08-19T06:22:54.869Z,1012.96
2018-08-19T06:23:54.943Z,1012.95
2018-08-19T06:24:54.987Z,1012.97
2018-08-19T06:25:55.047Z,1012.97
2018-08-19T06:26:55.109Z,1012.96
2018-08-19T06:27:55.164Z,1012.94
2018-08-19T06:28:55.479Z,1012.96
2018-08-19T06:29:55.283Z,1012.91
2018-08-19T06:30:55.383Z,1012.92
2018-08-19T06:31:55.401Z,1012.94
2018-08-19T06:32:55.460Z,1012.92
2018-08-19T06:33:55.521Z,1012.92
2018-08-19T06:34:55.700Z,1012.90
2018-08-19T06:35:55.638Z,1012.91
2018-08-19T06:36:55.696Z,1012.92
2018-08-19T06:37:55.756Z,1012.94
2018-08-19T06:38:55.814Z,1012.96
2018-08-19T06:39:55.875Z,1012.96
2018-08-19T06:40:55.936Z,1012.94
2018-08-19T06:41:55.993Z,1012.95
2018-08-19T06:42:56.054Z,1012.93
2018-08-19T06:43:56.116Z,1012.94
2018-08-19T06:44:56.173Z,1012.89
2018-08-19T06:45:56.232Z,1012.93
2018-08-19T06:46:56.292Z,1012.93
2018-08-19T06:47:56.351Z,1012.96
2018-08-19T06:48:56.562Z,1012.94
2018-08-19T06:49:56.470Z,1012.90
2018-08-19T06:50:56.552Z,1012.94
2018-08-19T06:51:56.605Z,1012.92
2018-08-19T06:52:56.657Z,1012.91
2018-08-19T06:53:56.710Z,1012.89
2018-08-19T06:54:56.774Z,1012.87
2018-08-19T06:55:56.828Z,1012.87
2018-08-19T06:56:56.888Z,1012.87
2018-08-19T06:57:56.950Z,1012.83
2018-08-19T06:58:57.026Z,1012.87
2018-08-19T06:59:57.066Z,1012.81
2018-08-19T07:00:57.129Z,1012.83
2018-08-19T07:01:57.186Z,1012.80
2018-08-19T07:02:57.245Z,1012.78
2018-08-19T07:03:57.321Z,1012.76
2018-08-19T07:04:57.366Z,1012.83
2018-08-19T07:05:57.426Z,1012.84
2018-08-19T07:06:57.485Z,1012.83
2018-08-19T07:07:57.544Z,1012.84
2018-08-19T07:08:57.605Z,1012.85
2018-08-19T07:09:57.664Z,1012.84
2018-08-19T07:10:57.724Z,1012.80
2018-08-19T07:11:57.785Z,1012.85
2018-08-19T07:12:57.845Z,1012.81
2018-08-19T07:13:57.905Z,1012.82
2018-08-19T07:14:57.964Z,1012.87
2018-08-19T07:15:58.024Z,1012.83
2018-08-19T07:16:58.085Z,1012.85
2018-08-19T07:17:58.191Z,1012.85
2018-08-19T07:18:58.205Z,1012.84
2018-08-19T07:19:58.273Z,1012.81
2018-08-19T07:20:58.324Z,1012.77
2018-08-19T07:21:58.384Z,1012.77
2018-08-19T07:22:58.445Z,1012.75
2018-08-19T07:23:58.506Z,1012.73
2018-08-19T07:24:58.566Z,1012.74
2018-08-19T07:25:58.626Z,1012.72
2018-08-19T07:26:58.685Z,1012.69
2018-08-19T07:27:58.751Z,1012.74
2018-08-19T07:28:58.810Z,1012.73
2018-08-19T07:29:58.869Z,1012.72
2018-08-19T07:30:58.928Z,1012.75
2018-08-19T07:31:58.988Z,1012.76
2018-08-19T07:32:59.048Z,1012.72
2018-08-19T07:33:59.109Z,1012.71
2018-08-19T07:34:59.171Z,1012.74
2018-08-19T07:35:59.229Z,1012.71
2018-08-19T07:36:59.409Z,1012.71
2018-08-19T07:37:59.351Z,1012.71
2018-08-19T07:38:59.411Z,1012.71
2018-08-19T07:39:59.471Z,1012.73
2018-08-19T07:40:59.533Z,1012.71
2018-08-19T07:42:00.207Z,1012.69
2018-08-19T07:42:59.654Z,1012.70
2018-08-19T07:43:59.798Z,1012.66
2018-08-19T07:44:59.774Z,1012.66
2018-08-19T07:45:59.835Z,1012.65
2018-08-19T07:46:59.896Z,1012.64
2018-08-19T07:47:59.962Z,1012.66
2018-08-19T07:49:00.018Z,1012.68
2018-08-19T07:50:00.082Z,1012.67
2018-08-19T07:51:00.139Z,1012.69
2018-08-19T07:52:00.241Z,1012.68
2018-08-19T07:53:00.263Z,1012.69
2018-08-19T07:54:00.322Z,1012.66
2018-08-19T07:55:00.382Z,1012.63
2018-08-19T07:56:00.444Z,1012.67
2018-08-19T07:57:00.504Z,1012.66
2018-08-19T07:58:00.565Z,1012.65
2018-08-19T07:59:53.093Z,1012.63
2018-08-19T08:00:53.154Z,1012.67
2018-08-19T08:01:53.215Z,1012.65
2018-08-19T08:02:53.277Z,1012.61
2018-08-19T08:03:53.348Z,1012.63
2018-08-19T08:04:53.398Z,1012.64
2018-08-19T08:05:53.460Z,1012.63
2018-08-19T08:06:53.521Z,1012.60
2018-08-19T08:07:53.588Z,1012.62
2018-08-19T08:08:53.643Z,1012.63
2018-08-19T08:09:53.705Z,1012.60
2018-08-19T08:10:53.769Z,1012.59
2018-08-19T08:11:53.828Z,1012.57
2018-08-19T08:12:53.888Z,1012.56
2018-08-19T08:13:54.047Z,1012.58
2018-08-19T08:14:54.012Z,1012.57
2018-08-19T08:15:54.074Z,1012.58
2018-08-19T08:16:54.549Z,1012.57
2018-08-19T08:17:54.247Z,1012.49
2018-08-19T08:18:54.259Z,1012.51
2018-08-19T08:19:54.320Z,1012.52
2018-08-19T08:20:54.380Z,1012.48
2018-08-19T08:21:54.467Z,1012.51
2018-08-19T08:22:54.504Z,1012.49
2018-08-19T08:23:54.566Z,1012.47
2018-08-19T08:24:54.632Z,1012.50
2018-08-19T08:25:54.690Z,1012.48
2018-08-19T08:26:54.753Z,1012.50
2018-08-19T08:27:54.814Z,1012.47
2018-08-19T08:28:54.875Z,1012.48
2018-08-19T08:29:54.938Z,1012.49
2018-08-19T08:30:55.012Z,1012.45
2018-08-19T08:31:55.066Z,1012.43
2018-08-19T08:32:55.123Z,1012.40
2018-08-19T08:33:55.184Z,1012.45
2018-08-19T08:34:55.247Z,1012.45
2018-08-19T08:35:55.311Z,1012.44
2018-08-19T08:36:55.372Z,1012.43
2018-08-19T08:37:55.433Z,1012.44
2018-08-19T08:38:55.497Z,1012.42
2018-08-19T08:39:55.558Z,1012.39
2018-08-19T08:40:55.621Z,1012.41
2018-08-19T08:41:55.683Z,1012.39
2018-08-19T08:42:55.745Z,1012.41
2018-08-19T08:43:55.808Z,1012.40
2018-08-19T08:44:55.870Z,1012.36
2018-08-19T08:45:55.933Z,1012.35
2018-08-19T08:46:56.003Z,1012.32
2018-08-19T08:47:56.096Z,1012.33
2018-08-19T08:48:56.120Z,1012.35
2018-08-19T08:49:56.183Z,1012.32
2018-08-19T08:50:56.249Z,1012.31
2018-08-19T08:51:56.308Z,1012.30
2018-08-19T08:52:56.371Z,1012.28
2018-08-19T08:53:56.434Z,1012.30
2018-08-19T08:54:56.497Z,1012.28
2018-08-19T08:55:56.560Z,1012.33
2018-08-19T08:56:56.622Z,1012.31
2018-08-19T08:57:56.685Z,1012.35
2018-08-19T08:58:56.748Z,1012.33
2018-08-19T08:59:56.811Z,1012.30
2018-08-19T09:00:56.873Z,1012.31
2018-08-19T09:01:56.938Z,1012.28
2018-08-19T09:02:57.001Z,1012.26
2018-08-19T09:03:57.062Z,1012.27
2018-08-19T09:04:57.126Z,1012.30
2018-08-19T09:05:57.191Z,1012.28
2018-08-19T09:06:57.253Z,1012.25
2018-08-19T09:07:57.315Z,1012.25
2018-08-19T09:08:57.379Z,1012.27
2018-08-19T09:09:57.442Z,1012.22
2018-08-19T09:10:57.508Z,1012.19
2018-08-19T09:11:57.569Z,1012.17
2018-08-19T09:12:57.634Z,1012.14
2018-08-19T09:13:57.765Z,1012.13
2018-08-19T09:14:57.759Z,1012.15
2018-08-19T09:15:57.823Z,1012.17
2018-08-19T09:16:57.888Z,1012.11
2018-08-19T09:17:57.950Z,1012.05
2018-08-19T09:18:58.014Z,1012.05
2018-08-19T09:19:58.095Z,1012.05
2018-08-19T09:20:58.141Z,1012.03
2018-08-19T09:21:58.727Z,1012.07
2018-08-19T09:22:58.285Z,1012.05
2018-08-19T09:23:58.332Z,1011.97
2018-08-19T09:24:58.395Z,1012.00
2018-08-19T09:25:58.459Z,1011.98
2018-08-19T09:26:58.524Z,1011.95
2018-08-19T09:27:58.596Z,1011.89
2018-08-19T09:28:58.650Z,1011.92
2018-08-19T09:29:58.741Z,1011.89
2018-08-19T09:30:58.777Z,1011.86
2018-08-19T09:31:58.840Z,1011.82
2018-08-19T09:32:59.023Z,1011.78
2018-08-19T09:33:58.969Z,1011.82
2018-08-19T09:34:59.114Z,1011.73
2018-08-19T09:35:59.104Z,1011.77
2018-08-19T09:36:59.160Z,1011.74
2018-08-19T09:37:59.225Z,1011.77
2018-08-19T09:38:59.411Z,1011.78
2018-08-19T09:39:59.418Z,1011.76
2018-08-19T09:41:59.479Z,1011.75
2018-08-19T09:42:59.585Z,1011.70
2018-08-19T09:43:59.609Z,1011.72
2018-08-19T09:46:02.427Z,1011.75
2018-08-19T09:47:02.237Z,1011.75
2018-08-19T09:48:02.521Z,1011.72
2018-08-19T09:49:02.366Z,1011.69
2018-08-19T09:50:02.431Z,1011.67
2018-08-19T09:51:02.505Z,1011.68
2018-08-19T09:52:02.556Z,1011.64
2018-08-19T09:53:02.666Z,1011.67
2018-08-19T09:54:02.737Z,1011.71
2018-08-19T09:55:02.749Z,1011.66
2018-08-19T09:56:02.816Z,1011.69
2018-08-19T09:57:02.877Z,1011.66
2018-08-19T09:58:02.943Z,1011.64
2018-08-19T09:59:03.008Z,1011.65
2018-08-19T10:00:03.079Z,1011.64
2018-08-19T10:01:03.135Z,1011.61
2018-08-19T10:02:03.202Z,1011.68
2018-08-19T10:03:03.264Z,1011.65
2018-08-19T10:04:03.328Z,1011.61
2018-08-19T10:05:03.393Z,1011.64
2018-08-19T10:06:03.837Z,1011.64
2018-08-19T10:07:03.521Z,1011.59
2018-08-19T10:08:03.586Z,1011.61
2018-08-19T10:09:03.651Z,1011.59
2018-08-19T10:10:03.715Z,1011.55
2018-08-19T10:11:03.779Z,1011.56
2018-08-19T10:12:03.845Z,1011.58
2018-08-19T10:13:03.908Z,1011.56
2018-08-19T10:14:03.973Z,1011.52
2018-08-19T10:15:04.039Z,1011.50
2018-08-19T10:16:04.102Z,1011.51
2018-08-19T10:17:04.166Z,1011.49
2018-08-19T10:18:04.231Z,1011.52
2018-08-19T10:19:04.295Z,1011.51
2018-08-19T10:20:04.360Z,1011.53
2018-08-19T10:21:04.428Z,1011.49
2018-08-19T10:22:04.489Z,1011.50
2018-08-19T10:23:04.553Z,1011.47
2018-08-19T10:24:04.617Z,1011.45
2018-08-19T10:25:04.684Z,1011.50
2018-08-19T10:26:04.764Z,1011.42
2018-08-19T10:27:04.934Z,1011.41
2018-08-19T10:28:04.878Z,1011.42
2018-08-19T10:29:04.943Z,1011.44
2018-08-19T10:30:05.008Z,1011.46
2018-08-19T10:31:05.073Z,1011.56
2018-08-19T10:32:09.571Z,1012.00
2018-08-19T10:33:05.210Z,1012.34
2018-08-19T10:34:05.280Z,1012.37
2018-08-19T10:35:05.661Z,1012.41
2018-08-19T10:36:05.473Z,1012.43
2018-08-19T10:37:05.482Z,1012.48
2018-08-19T10:38:05.537Z,1012.53
2018-08-19T10:39:05.659Z,1012.45
2018-08-19T10:40:05.670Z,1012.51
2018-08-19T10:41:05.740Z,1012.52
2018-08-19T10:42:05.808Z,1012.51
2018-08-19T10:43:05.876Z,1012.54
2018-08-19T10:44:05.944Z,1012.59
2018-08-19T10:45:06.012Z,1012.60
2018-08-19T10:46:06.083Z,1012.61
2018-08-19T10:47:06.149Z,1012.61
2018-08-19T10:48:06.219Z,1012.60
2018-08-19T10:49:06.289Z,1012.53
2018-08-19T10:50:06.358Z,1012.55
2018-08-19T10:51:06.427Z,1012.54
2018-08-19T10:52:06.497Z,1012.55
2018-08-19T10:53:06.574Z,1012.62
2018-08-19T10:54:06.639Z,1012.61
2018-08-19T10:55:06.708Z,1012.68
2018-08-19T10:56:06.778Z,1012.66
2018-08-19T10:57:06.905Z,1012.60
2018-08-19T10:58:06.919Z,1012.56
2018-08-19T10:59:06.989Z,1012.60
2018-08-19T11:00:07.061Z,1012.58
2018-08-19T11:01:07.132Z,1012.61
2018-08-19T11:02:07.203Z,1012.59
2018-08-19T11:03:07.275Z,1012.59
2018-08-19T11:04:07.346Z,1012.57
2018-08-19T11:05:07.417Z,1012.47
2018-08-19T11:06:07.489Z,1012.55
2018-08-19T11:07:07.560Z,1012.63
2018-08-19T11:08:07.631Z,1012.61
2018-08-19T11:09:07.703Z,1012.49
2018-08-19T11:10:07.775Z,1012.53
2018-08-19T11:11:07.846Z,1012.51
2018-08-19T11:12:07.921Z,1012.50
2018-08-19T11:13:07.993Z,1012.51
2018-08-19T11:14:08.061Z,1012.48
2018-08-19T11:15:08.133Z,1012.46
2018-08-19T11:16:08.204Z,1012.46
2018-08-19T11:17:08.277Z,1012.41
2018-08-19T11:18:08.349Z,1012.41
2018-08-19T11:19:08.423Z,1012.37
2018-08-19T11:20:08.492Z,1012.38
2018-08-19T11:21:08.675Z,1012.35
2018-08-19T11:22:08.636Z,1012.29
2018-08-19T11:23:08.708Z,1012.25
2018-08-19T11:24:08.781Z,1012.24
2018-08-19T11:25:08.853Z,1012.13
2018-08-19T11:26:08.924Z,1012.19
2018-08-19T11:27:08.996Z,1012.18
2018-08-19T11:28:09.067Z,1012.10
2018-08-19T11:29:09.140Z,1012.12
2018-08-19T11:30:09.212Z,1012.15
2018-08-19T11:31:09.284Z,1012.11
2018-08-19T11:32:09.362Z,1012.09
2018-08-19T11:33:09.428Z,1012.05
2018-08-19T11:34:09.652Z,1012.06
2018-08-19T11:35:09.573Z,1012.00
2018-08-19T11:36:09.643Z,1011.95
2018-08-19T11:37:09.719Z,1011.94
2018-08-19T11:38:09.789Z,1011.87
2018-08-19T11:39:09.860Z,1011.86
2018-08-19T11:40:09.932Z,1011.83
2018-08-19T11:41:10.005Z,1011.81
2018-08-19T11:42:10.076Z,1011.92
2018-08-19T11:43:10.148Z,1011.85
2018-08-19T11:44:10.219Z,1011.83
2018-08-19T11:45:10.293Z,1011.82
2018-08-19T11:46:10.364Z,1011.78
2018-08-19T11:47:10.435Z,1011.77
2018-08-19T11:48:10.507Z,1011.74
2018-08-19T11:49:10.579Z,1011.67
2018-08-19T11:50:10.652Z,1011.77
2018-08-19T11:51:10.727Z,1011.70
2018-08-19T11:52:10.795Z,1011.76
2018-08-19T11:53:10.868Z,1011.77
2018-08-19T11:54:10.949Z,1011.77
2018-08-19T11:55:11.012Z,1011.70
2018-08-19T11:56:11.083Z,1011.77
2018-08-19T11:57:11.155Z,1011.85
2018-08-19T11:58:11.228Z,1011.88
2018-08-19T11:59:11.299Z,1011.98
2018-08-19T12:00:11.370Z,1012.07
2018-08-19T12:01:11.443Z,1011.97
2018-08-19T12:02:11.544Z,1012.05
2018-08-19T12:03:11.585Z,1011.91
2018-08-19T12:04:11.658Z,1011.91
2018-08-19T12:05:11.731Z,1011.85
2018-08-19T12:06:11.803Z,1011.88
2018-08-19T12:07:11.873Z,1011.87
2018-08-19T12:08:11.945Z,1011.83
2018-08-19T12:09:12.020Z,1011.75